Time;durP1;ratioP1;P1;durP2;ratioP2;P2;SDS_P1;SDS_P2;PMS_P1;PMS_P2;Temp;Humidity;BMP_temperature;BMP_pressure;BME280_temperature;BME280_humidity;BME280_pressure;Samples;Min_cycle;Max_cycle;Signal;HPM_P1;HPM_P2
2023/09/07 06:00:35;;;;;;;22.67;9.20;;;;;;;;;;5897120;23;20533;-77
2023/09/07 06:03:03;;;;;;;15.47;9.40;;;;;;;;;;4897842;29;20533;-77
2023/09/07 06:05:29;;;;;;;15.90;8.93;;;;;;;;;;4897838;29;20944;-77
2023/09/07 06:07:55;;;;;;;15.80;8.80;;;;;;;;;;4908801;29;20418;-77
2023/09/07 06:10:21;;;;;;;15.50;8.90;;;;;;;;;;4916768;29;20414;-77
2023/09/07 06:12:46;;;;;;;12.40;8.20;;;;;;;;;;4917216;29;20422;-77
2023/09/07 06:15:12;;;;;;;19.50;8.70;;;;;;;;;;4917326;29;20497;-76
2023/09/07 06:17:38;;;;;;;16.13;8.60;;;;;;;;;;4916378;29;20431;-76
2023/09/07 06:20:05;;;;;;;18.03;9.23;;;;;;;;;;4916273;29;20426;-76
2023/09/07 06:22:31;;;;;;;18.80;8.63;;;;;;;;;;4916403;29;20442;-77
2023/09/07 06:24:57;;;;;;;12.90;8.60;;;;;;;;;;4915277;29;20491;-76
2023/09/07 06:27:23;;;;;;;18.80;9.97;;;;;;;;;;4916255;29;20422;-76
2023/09/07 06:29:50;;;;;;;21.00;8.43;;;;;;;;;;4916860;29;20505;-78
2023/09/07 06:32:16;;;;;;;14.27;9.00;;;;;;;;;;4916646;29;20434;-77
2023/09/07 06:34:42;;;;;;;19.23;9.17;;;;;;;;;;4908391;29;20807;-76
2023/09/07 06:37:08;;;;;;;17.70;10.07;;;;;;;;;;4891790;29;20643;-77
2023/09/07 06:39:34;;;;;;;9.90;7.83;;;;;;;;;;4915185;29;20932;-78
2023/09/07 06:42:00;;;;;;;14.40;8.60;;;;;;;;;;4914766;29;20442;-77
2023/09/07 06:44:26;;;;;;;17.73;8.27;;;;;;;;;;4915536;29;20425;-77
2023/09/07 06:46:52;;;;;;;15.23;8.90;;;;;;;;;;4915121;29;20784;-77
2023/09/07 06:49:19;;;;;;;11.17;7.83;;;;;;;;;;4916576;29;20430;-78
2023/09/07 06:51:45;;;;;;;15.03;8.13;;;;;;;;;;4917858;29;20477;-78
2023/09/07 06:54:11;;;;;;;20.63;9.40;;;;;;;;;;4917690;29;20415;-78
2023/09/07 06:56:37;;;;;;;14.70;8.40;;;;;;;;;;4917340;29;20517;-79
2023/09/07 06:59:03;;;;;;;15.13;9.73;;;;;;;;;;4916084;29;20838;-78
2023/09/07 07:01:29;;;;;;;11.47;7.90;;;;;;;;;;4915618;29;20536;-77
2023/09/07 07:03:56;;;;;;;15.17;7.80;;;;;;;;;;4923043;29;20411;-70
2023/09/07 07:06:22;;;;;;;24.80;10.07;;;;;;;;;;4926226;29;20509;-74
2023/09/07 07:08:48;;;;;;;12.67;8.30;;;;;;;;;;4885853;29;20995;-70
2023/09/07 07:11:14;;;;;;;22.40;8.80;;;;;;;;;;4904546;29;20580;-69
2023/09/07 07:13:40;;;;;;;17.43;9.50;;;;;;;;;;4915034;29;20471;-69
2023/09/07 07:16:07;;;;;;;22.07;11.10;;;;;;;;;;4900346;29;20465;-68
2023/09/07 07:18:33;;;;;;;23.47;9.50;;;;;;;;;;4914825;29;20466;-69
2023/09/07 07:20:58;;;;;;;17.47;8.60;;;;;;;;;;4897077;29;20439;-68
2023/09/07 07:23:24;;;;;;;14.33;8.80;;;;;;;;;;4896432;29;20427;-69
2023/09/07 07:25:52;;;;;;;14.70;8.20;;;;;;;;;;4896172;29;20441;-69
2023/09/07 07:28:18;;;;;;;15.47;9.47;;;;;;;;;;4906669;29;20461;-69
2023/09/07 07:30:44;;;;;;;18.00;10.30;;;;;;;;;;4900302;29;20905;-69
2023/09/07 07:33:11;;;;;;;20.63;10.57;;;;;;;;;;4900116;29;20415;-69
2023/09/07 07:35:37;;;;;;;16.23;9.20;;;;;;;;;;4913160;29;20462;-69
2023/09/07 07:38:04;;;;;;;16.33;9.10;;;;;;;;;;4918785;29;20521;-69
2023/09/07 07:40:31;;;;;;;14.23;9.27;;;;;;;;;;4915500;29;20462;-68
2023/09/07 07:42:57;;;;;;;14.73;7.60;;;;;;;;;;4919114;29;20422;-68
2023/09/07 07:45:23;;;;;;;23.10;9.73;;;;;;;;;;4906495;29;20499;-68
2023/09/07 07:47:49;;;;;;;14.10;8.30;;;;;;;;;;4899810;29;20511;-68
2023/09/07 07:50:15;;;;;;;21.30;10.30;;;;;;;;;;4904420;29;20432;-68
2023/09/07 07:52:42;;;;;;;13.40;8.10;;;;;;;;;;4917735;29;20422;-68
2023/09/07 07:55:08;;;;;;;10.50;8.40;;;;;;;;;;4909031;29;20543;-69
2023/09/07 07:57:34;;;;;;;20.40;8.03;;;;;;;;;;4917412;29;20422;-69
2023/09/07 08:00:00;;;;;;;18.40;7.80;;;;;;;;;;4910167;29;20523;-69
2023/09/07 08:02:26;;;;;;;15.73;8.30;;;;;;;;;;4899793;29;20600;-69
2023/09/07 08:04:52;;;;;;;10.50;6.93;;;;;;;;;;4907344;29;20431;-69
2023/09/07 08:07:18;;;;;;;14.20;8.40;;;;;;;;;;4899937;29;20429;-70
2023/09/07 08:09:44;;;;;;;17.13;8.10;;;;;;;;;;4903834;29;20928;-69
2023/09/07 08:12:10;;;;;;;14.70;8.53;;;;;;;;;;4918519;29;20572;-69
2023/09/07 08:14:36;;;;;;;16.20;8.20;;;;;;;;;;4913669;29;20482;-69
2023/09/07 08:17:02;;;;;;;11.53;7.33;;;;;;;;;;4906273;29;20481;-69
2023/09/07 08:19:29;;;;;;;14.10;8.30;;;;;;;;;;4915697;29;20486;-70
2023/09/07 08:21:55;;;;;;;10.40;6.77;;;;;;;;;;4904142;29;20442;-70
2023/09/07 08:24:21;;;;;;;11.70;8.40;;;;;;;;;;4904788;29;20494;-69
2023/09/07 08:26:51;;;;;;;10.07;7.63;;;;;;;;;;4918258;29;20445;-69
2023/09/07 08:29:17;;;;;;;13.03;8.63;;;;;;;;;;4917831;29;20411;-69
2023/09/07 08:31:45;;;;;;;13.80;8.23;;;;;;;;;;4899835;29;20554;-69
2023/09/07 08:34:11;;;;;;;12.43;7.60;;;;;;;;;;4899409;29;20427;-69
2023/09/07 08:36:38;;;;;;;12.63;7.30;;;;;;;;;;4888649;29;20835;-70
2023/09/07 08:39:10;;;;;;;12.47;7.60;;;;;;;;;;4898249;29;20502;-69
2023/09/07 08:41:46;;;;;;;14.50;8.07;;;;;;;;;;4897119;29;20501;-68
2023/09/07 08:44:22;;;;;;;13.43;8.10;;;;;;;;;;4899715;29;20403;-68
2023/09/07 08:46:50;;;;;;;21.63;7.97;;;;;;;;;;4913740;29;20441;-69
2023/09/07 08:49:19;;;;;;;13.53;8.00;;;;;;;;;;4917623;29;20418;-69
2023/09/07 08:51:45;;;;;;;16.40;8.37;;;;;;;;;;4880671;29;20965;-69
2023/09/07 08:54:12;;;;;;;18.63;8.07;;;;;;;;;;4896216;29;20434;-68
2023/09/07 08:56:38;;;;;;;9.13;6.50;;;;;;;;;;4900227;29;20557;-69
2023/09/07 08:59:04;;;;;;;12.23;6.80;;;;;;;;;;4900917;29;20502;-69
2023/09/07 09:01:31;;;;;;;10.10;7.43;;;;;;;;;;4911904;29;20470;-68
2023/09/07 09:03:58;;;;;;;10.30;7.70;;;;;;;;;;4899400;29;20975;-69
2023/09/07 09:06:24;;;;;;;11.33;7.20;;;;;;;;;;4899106;29;20519;-68
2023/09/07 09:08:59;;;;;;;11.90;8.23;;;;;;;;;;4909427;29;20887;-68
2023/09/07 09:11:25;;;;;;;12.17;6.90;;;;;;;;;;4917321;29;20453;-68
2023/09/07 09:13:52;;;;;;;10.87;7.37;;;;;;;;;;4909641;29;20423;-68
2023/09/07 09:16:18;;;;;;;11.77;7.47;;;;;;;;;;4898639;29;20466;-68
2023/09/07 09:18:54;;;;;;;11.70;7.50;;;;;;;;;;4898134;29;20419;-68
2023/09/07 09:21:21;;;;;;;10.80;7.00;;;;;;;;;;4911753;29;20446;-67
2023/09/07 09:23:49;;;;;;;9.77;7.10;;;;;;;;;;4914048;29;20505;-67
2023/09/07 09:26:15;;;;;;;10.93;7.60;;;;;;;;;;4917481;29;20425;-68
2023/09/07 09:28:42;;;;;;;9.40;7.80;;;;;;;;;;4911147;29;20431;-68
2023/09/07 09:31:12;;;;;;;12.30;8.03;;;;;;;;;;4898434;29;20859;-68
2023/09/07 09:33:38;;;;;;;13.23;8.30;;;;;;;;;;4899567;29;20436;-67
2023/09/07 09:36:04;;;;;;;10.10;7.10;;;;;;;;;;4917009;29;20473;-68
2023/09/07 09:38:31;;;;;;;12.13;7.50;;;;;;;;;;4912972;29;20813;-68
2023/09/07 09:40:58;;;;;;;8.90;7.37;;;;;;;;;;4898061;29;20475;-68
2023/09/07 09:43:25;;;;;;;19.33;7.33;;;;;;;;;;4897072;29;20435;-68
2023/09/07 09:45:52;;;;;;;11.10;7.20;;;;;;;;;;4899055;29;20419;-68
2023/09/07 09:48:19;;;;;;;9.07;6.50;;;;;;;;;;4915218;29;20418;-68
2023/09/07 09:50:48;;;;;;;10.00;7.30;;;;;;;;;;4898501;29;20443;-68
2023/09/07 09:53:18;;;;;;;12.33;7.53;;;;;;;;;;4906702;29;20439;-68
2023/09/07 09:55:44;;;;;;;12.10;7.67;;;;;;;;;;4897997;29;20526;-69
2023/09/07 09:58:10;;;;;;;10.47;7.20;;;;;;;;;;4902439;29;20430;-69
2023/09/07 10:00:37;;;;;;;12.30;8.40;;;;;;;;;;4911083;29;20473;-69
2023/09/07 10:03:11;;;;;;;9.70;7.60;;;;;;;;;;4925281;29;20487;-68
2023/09/07 10:05:37;;;;;;;10.80;6.83;;;;;;;;;;4905213;29;20432;-68
2023/09/07 10:08:05;;;;;;;11.70;6.80;;;;;;;;;;4901070;29;20435;-68
2023/09/07 10:10:34;;;;;;;13.90;7.37;;;;;;;;;;4898720;29;20450;-68
2023/09/07 10:13:00;;;;;;;11.30;6.90;;;;;;;;;;4897738;29;20454;-69
2023/09/07 10:15:27;;;;;;;12.70;7.30;;;;;;;;;;4897396;29;20844;-69
2023/09/07 10:18:12;;;;;;;11.90;8.00;;;;;;;;;;4899457;29;20411;-68
2023/09/07 10:21:07;;;;;;;9.80;7.43;;;;;;;;;;4897913;29;20439;-69
2023/09/07 10:23:36;;;;;;;12.80;7.20;;;;;;;;;;4881229;29;20514;-69
2023/09/07 10:26:04;;;;;;;10.10;7.57;;;;;;;;;;4899607;29;20715;-69
2023/09/07 10:28:30;;;;;;;14.93;7.67;;;;;;;;;;4914329;29;20494;-69
2023/09/07 10:31:06;;;;;;;12.10;8.10;;;;;;;;;;4892279;29;20497;-69
2023/09/07 10:33:36;;;;;;;16.90;8.00;;;;;;;;;;4889078;29;20432;-69
2023/09/07 10:36:02;;;;;;;11.03;7.90;;;;;;;;;;4896833;29;20459;-69
2023/09/07 10:38:28;;;;;;;10.83;7.83;;;;;;;;;;4897872;29;20438;-70
2023/09/07 10:40:58;;;;;;;11.20;8.20;;;;;;;;;;4898494;29;20526;-71
2023/09/07 10:43:28;;;;;;;12.33;8.37;;;;;;;;;;4898117;29;20861;-70
2023/09/07 10:45:57;;;;;;;11.07;7.90;;;;;;;;;;4898258;29;20430;-69
2023/09/07 10:48:26;;;;;;;13.97;8.57;;;;;;;;;;4897391;29;20442;-69
2023/09/07 10:50:52;;;;;;;10.73;7.87;;;;;;;;;;4897343;29;20543;-69
2023/09/07 10:53:27;;;;;;;12.93;7.70;;;;;;;;;;4897526;29;20424;-70
2023/09/07 10:55:53;;;;;;;14.30;7.33;;;;;;;;;;4896743;29;20568;-69
2023/09/07 10:58:32;;;;;;;7.87;6.97;;;;;;;;;;4897028;29;20419;-69
2023/09/07 11:00:59;;;;;;;13.20;7.80;;;;;;;;;;4896828;29;20461;-69
2023/09/07 11:03:26;;;;;;;9.30;7.80;;;;;;;;;;4896332;29;20430;-69
2023/09/07 11:05:54;;;;;;;14.20;7.47;;;;;;;;;;4896671;29;20579;-69
2023/09/07 11:08:20;;;;;;;10.63;7.53;;;;;;;;;;4896499;29;20472;-69
2023/09/07 11:10:46;;;;;;;10.67;7.50;;;;;;;;;;4896975;29;20431;-70
2023/09/07 11:13:12;;;;;;;8.83;6.90;;;;;;;;;;4896824;29;20801;-70
2023/09/07 11:15:39;;;;;;;9.40;7.17;;;;;;;;;;4896848;29;20585;-70
2023/09/07 11:18:08;;;;;;;10.00;7.83;;;;;;;;;;4896390;29;20452;-69
2023/09/07 11:20:39;;;;;;;9.30;7.27;;;;;;;;;;4894711;29;20547;-70
2023/09/07 11:23:05;;;;;;;8.57;6.60;;;;;;;;;;4896750;29;20420;-69
2023/09/07 11:25:38;;;;;;;12.30;6.80;;;;;;;;;;4896658;29;20427;-69
2023/09/07 11:28:07;;;;;;;8.90;6.73;;;;;;;;;;4895134;29;20427;-70
2023/09/07 11:30:34;;;;;;;9.60;6.40;;;;;;;;;;4896511;29;20868;-69
2023/09/07 11:33:01;;;;;;;8.67;6.73;;;;;;;;;;4896484;29;20437;-69
2023/09/07 11:35:27;;;;;;;9.93;7.10;;;;;;;;;;4896435;29;20463;-69
2023/09/07 11:37:53;;;;;;;12.53;6.37;;;;;;;;;;4888419;29;20439;-69
2023/09/07 11:40:19;;;;;;;9.50;7.33;;;;;;;;;;4897651;29;20491;-70
2023/09/07 11:42:45;;;;;;;9.30;7.00;;;;;;;;;;4896911;29;20416;-69
2023/09/07 11:45:13;;;;;;;9.13;6.33;;;;;;;;;;4896617;29;20419;-69
2023/09/07 11:47:39;;;;;;;9.90;6.67;;;;;;;;;;4888884;29;20432;-69
2023/09/07 11:50:06;;;;;;;11.13;6.27;;;;;;;;;;4897783;29;20426;-69
2023/09/07 11:52:33;;;;;;;10.30;7.20;;;;;;;;;;4896201;29;20451;-69
2023/09/07 11:54:59;;;;;;;9.00;6.00;;;;;;;;;;4896304;29;20506;-69
2023/09/07 11:57:25;;;;;;;8.60;5.73;;;;;;;;;;4896881;29;20562;-69
2023/09/07 11:59:51;;;;;;;9.00;6.33;;;;;;;;;;4896755;29;20483;-69
2023/09/07 12:02:17;;;;;;;7.97;6.50;;;;;;;;;;4896280;29;20455;-69
2023/09/07 12:04:44;;;;;;;7.90;6.17;;;;;;;;;;4896226;29;20796;-69
2023/09/07 12:07:10;;;;;;;9.33;5.90;;;;;;;;;;4890967;29;20462;-70
2023/09/07 12:09:36;;;;;;;7.63;6.00;;;;;;;;;;4896989;29;20447;-69
2023/09/07 12:12:02;;;;;;;7.90;6.50;;;;;;;;;;4900249;29;20446;-69
2023/09/07 12:14:28;;;;;;;10.33;6.93;;;;;;;;;;4919094;23;20789;-67
2023/09/07 12:16:54;;;;;;;9.07;6.60;;;;;;;;;;4896528;29;20550;-70
2023/09/07 12:19:20;;;;;;;14.30;6.03;;;;;;;;;;4899713;29;20897;-69
2023/09/07 12:21:46;;;;;;;8.57;6.83;;;;;;;;;;4899421;29;20411;-70
2023/09/07 12:24:12;;;;;;;9.03;6.20;;;;;;;;;;4898764;29;20589;-68
2023/09/07 12:26:38;;;;;;;10.73;6.10;;;;;;;;;;4883074;29;20600;-69
2023/09/07 12:29:04;;;;;;;7.80;5.80;;;;;;;;;;4893003;29;20431;-69
2023/09/07 12:31:31;;;;;;;10.57;6.33;;;;;;;;;;4899290;29;20479;-70
2023/09/07 12:33:57;;;;;;;7.60;6.10;;;;;;;;;;4899329;29;20514;-71
2023/09/07 12:36:23;;;;;;;10.10;6.17;;;;;;;;;;4898796;29;20478;-70
2023/09/07 12:38:49;;;;;;;8.83;5.63;;;;;;;;;;4899359;29;20792;-70
2023/09/07 12:41:15;;;;;;;9.97;6.30;;;;;;;;;;4899582;29;20414;-70
2023/09/07 12:43:43;;;;;;;7.80;6.27;;;;;;;;;;4899348;29;20427;-70
2023/09/07 12:46:09;;;;;;;8.40;5.73;;;;;;;;;;4899197;29;20901;-69
2023/09/07 12:48:35;;;;;;;6.37;5.00;;;;;;;;;;4899106;29;20475;-70
2023/09/07 12:51:01;;;;;;;8.37;6.50;;;;;;;;;;4898745;29;20416;-70
2023/09/07 12:53:27;;;;;;;7.73;6.23;;;;;;;;;;4898903;29;20450;-70
2023/09/07 12:55:54;;;;;;;9.40;5.80;;;;;;;;;;4898824;29;20996;-70
2023/09/07 12:58:20;;;;;;;9.83;5.60;;;;;;;;;;4888251;29;20511;-70
2023/09/07 13:00:48;;;;;;;7.23;5.60;;;;;;;;;;4878455;29;20444;-70
2023/09/07 13:03:14;;;;;;;8.47;5.57;;;;;;;;;;4880324;29;20412;-70
2023/09/07 13:05:40;;;;;;;8.70;5.97;;;;;;;;;;4880097;29;20499;-70
2023/09/07 13:08:06;;;;;;;8.20;6.60;;;;;;;;;;4912070;29;20946;-70
2023/09/07 13:10:33;;;;;;;8.73;6.37;;;;;;;;;;4918466;29;20499;-70
2023/09/07 13:12:59;;;;;;;8.10;5.73;;;;;;;;;;4918350;29;20449;-70
2023/09/07 13:15:25;;;;;;;8.30;5.70;;;;;;;;;;4917379;29;20455;-69
2023/09/07 13:17:51;;;;;;;8.70;5.87;;;;;;;;;;4903324;29;20435;-70
2023/09/07 13:20:19;;;;;;;9.13;6.37;;;;;;;;;;4907892;29;20802;-70
2023/09/07 13:22:46;;;;;;;7.83;6.10;;;;;;;;;;4898776;29;20537;-69
2023/09/07 13:25:12;;;;;;;12.53;6.70;;;;;;;;;;4899162;29;20431;-69
2023/09/07 13:27:38;;;;;;;10.93;5.87;;;;;;;;;;4898125;29;20973;-68
2023/09/07 13:30:05;;;;;;;7.53;5.70;;;;;;;;;;4897817;29;20502;-70
2023/09/07 13:32:32;;;;;;;9.03;6.30;;;;;;;;;;4898718;29;20563;-70
2023/09/07 13:34:58;;;;;;;10.33;6.07;;;;;;;;;;4898685;29;20970;-75
2023/09/07 13:37:24;;;;;;;7.63;6.00;;;;;;;;;;4898608;29;20475;-70
2023/09/07 13:39:50;;;;;;;8.00;6.10;;;;;;;;;;4890163;29;20930;-70
2023/09/07 13:42:16;;;;;;;26.93;6.40;;;;;;;;;;4907889;29;20990;-69
2023/09/07 13:44:42;;;;;;;16.20;6.27;;;;;;;;;;4898932;29;20412;-69
2023/09/07 13:47:08;;;;;;;7.93;5.73;;;;;;;;;;4914746;29;20430;-69
2023/09/07 13:49:34;;;;;;;7.20;6.00;;;;;;;;;;4899771;29;20423;-79
2023/09/07 13:52:00;;;;;;;9.77;6.73;;;;;;;;;;4899409;29;20522;-69
2023/09/07 13:54:26;;;;;;;9.50;5.57;;;;;;;;;;4899526;29;20450;-70
2023/09/07 13:56:52;;;;;;;10.80;6.00;;;;;;;;;;4899497;29;20601;-70
2023/09/07 13:59:18;;;;;;;8.27;6.07;;;;;;;;;;4898646;29;20451;-68
2023/09/07 14:01:44;;;;;;;10.70;6.40;;;;;;;;;;4899179;29;20913;-69
2023/09/07 14:04:10;;;;;;;7.17;5.80;;;;;;;;;;4899747;29;20486;-71
2023/09/07 14:06:36;;;;;;;9.67;6.20;;;;;;;;;;4898749;29;20431;-71
2023/09/07 14:09:02;;;;;;;7.30;6.20;;;;;;;;;;4915669;29;20435;-70
2023/09/07 14:11:28;;;;;;;9.40;5.60;;;;;;;;;;4918131;29;20426;-70
2023/09/07 14:13:54;;;;;;;7.03;5.13;;;;;;;;;;4916579;29;20433;-71
2023/09/07 14:16:20;;;;;;;9.30;6.50;;;;;;;;;;4915271;29;20484;-71
2023/09/07 14:18:47;;;;;;;12.00;6.80;;;;;;;;;;4916106;29;20430;-70
2023/09/07 14:21:16;;;;;;;10.43;6.50;;;;;;;;;;4917684;29;20417;-70
2023/09/07 14:23:43;;;;;;;10.53;5.60;;;;;;;;;;4917799;29;20410;-70
2023/09/07 14:26:09;;;;;;;14.70;5.97;;;;;;;;;;4918011;29;20513;-70
2023/09/07 14:28:35;;;;;;;6.90;5.53;;;;;;;;;;4917791;29;20465;-72
2023/09/07 14:31:04;;;;;;;6.10;5.33;;;;;;;;;;4918119;29;20478;-71
2023/09/07 14:33:30;;;;;;;8.87;6.43;;;;;;;;;;4918234;29;20419;-71
2023/09/07 14:35:56;;;;;;;9.50;6.47;;;;;;;;;;4915958;29;20458;-70
2023/09/07 14:38:23;;;;;;;10.13;6.20;;;;;;;;;;4915763;29;20461;-70
2023/09/07 14:40:50;;;;;;;7.57;5.43;;;;;;;;;;4915571;29;20430;-70
2023/09/07 14:43:16;;;;;;;7.93;6.27;;;;;;;;;;4916967;29;20407;-70
2023/09/07 14:45:43;;;;;;;8.70;5.83;;;;;;;;;;4916523;29;20442;-70
2023/09/07 14:48:09;;;;;;;8.30;5.50;;;;;;;;;;4915353;29;20427;-70
2023/09/07 14:50:35;;;;;;;7.80;6.30;;;;;;;;;;4916223;29;20925;-69
2023/09/07 14:53:01;;;;;;;8.80;6.40;;;;;;;;;;4916065;29;20909;-70
2023/09/07 14:55:27;;;;;;;9.60;6.07;;;;;;;;;;4915718;29;20437;-70
2023/09/07 14:57:53;;;;;;;7.10;6.00;;;;;;;;;;4915884;29;20414;-71
2023/09/07 15:00:19;;;;;;;7.70;6.00;;;;;;;;;;4915978;29;20422;-71
2023/09/07 15:02:45;;;;;;;11.70;5.33;;;;;;;;;;4916840;29;20415;-71
2023/09/07 15:05:11;;;;;;;9.23;6.33;;;;;;;;;;4917108;29;20430;-71
2023/09/07 15:07:37;;;;;;;7.73;6.40;;;;;;;;;;4916800;29;20466;-70
2023/09/07 15:10:04;;;;;;;8.23;5.57;;;;;;;;;;4914693;29;20518;-70
2023/09/07 15:12:30;;;;;;;10.87;5.97;;;;;;;;;;4916769;29;20415;-70
2023/09/07 15:14:56;;;;;;;8.27;6.10;;;;;;;;;;4915884;29;20458;-70
2023/09/07 15:17:22;;;;;;;9.90;6.30;;;;;;;;;;4915613;29;20557;-70
2023/09/07 15:19:48;;;;;;;7.60;6.30;;;;;;;;;;4915630;29;20437;-71
2023/09/07 15:22:14;;;;;;;9.90;6.90;;;;;;;;;;4916039;29;20470;-70
2023/09/07 15:24:41;;;;;;;8.60;6.10;;;;;;;;;;4916327;29;20770;-70
2023/09/07 15:27:11;;;;;;;8.17;6.40;;;;;;;;;;4916175;29;20418;-70
2023/09/07 15:29:37;;;;;;;8.00;5.87;;;;;;;;;;4915627;29;20438;-70
2023/09/07 15:32:04;;;;;;;6.10;5.57;;;;;;;;;;4916420;29;20453;-69
2023/09/07 15:34:30;;;;;;;6.87;5.83;;;;;;;;;;4916499;29;20466;-70
2023/09/07 15:36:56;;;;;;;7.60;5.80;;;;;;;;;;4917413;29;20474;-69
2023/09/07 15:39:22;;;;;;;12.73;5.83;;;;;;;;;;4916183;29;20454;-69
2023/09/07 15:41:47;;;;;;;12.80;6.10;;;;;;;;;;4917370;29;20934;-69
2023/09/07 15:44:13;;;;;;;8.37;5.63;;;;;;;;;;4916372;29;20438;-70
2023/09/07 15:46:40;;;;;;;12.07;5.60;;;;;;;;;;4916153;29;20465;-71
2023/09/07 15:49:06;;;;;;;9.40;6.17;;;;;;;;;;4916156;29;20449;-70
2023/09/07 15:51:32;;;;;;;11.77;6.73;;;;;;;;;;4918520;29;20425;-71
2023/09/07 15:53:58;;;;;;;13.03;5.77;;;;;;;;;;4923479;29;20419;-71
2023/09/07 15:56:23;;;;;;;11.47;6.60;;;;;;;;;;4922393;29;20505;-71
2023/09/07 15:58:50;;;;;;;9.60;6.07;;;;;;;;;;4902452;29;20432;-71
2023/09/07 16:01:16;;;;;;;12.03;6.30;;;;;;;;;;4900313;29;20410;-70
2023/09/07 16:03:42;;;;;;;9.70;5.70;;;;;;;;;;4899607;29;20459;-70
2023/09/07 16:06:08;;;;;;;9.03;5.67;;;;;;;;;;4900320;29;20792;-71
2023/09/07 16:08:34;;;;;;;8.20;5.63;;;;;;;;;;4905473;29;20453;-70
2023/09/07 16:11:00;;;;;;;9.13;6.37;;;;;;;;;;4920376;29;20419;-70
2023/09/07 16:13:27;;;;;;;7.30;5.63;;;;;;;;;;4919191;29;20419;-70
2023/09/07 16:15:53;;;;;;;9.53;5.70;;;;;;;;;;4920601;29;20480;-70
2023/09/07 16:18:19;;;;;;;8.23;5.87;;;;;;;;;;4920468;29;20422;-70
2023/09/07 16:20:46;;;;;;;8.47;6.00;;;;;;;;;;4920315;29;20410;-70
2023/09/07 16:23:12;;;;;;;9.20;6.37;;;;;;;;;;4920421;29;21075;-70
2023/09/07 16:25:38;;;;;;;10.20;5.67;;;;;;;;;;4920199;29;20860;-70
2023/09/07 16:28:06;;;;;;;15.33;6.10;;;;;;;;;;4918928;29;20426;-70
2023/09/07 16:30:32;;;;;;;16.90;6.47;;;;;;;;;;4919880;29;20417;-70
2023/09/07 16:32:58;;;;;;;11.20;5.50;;;;;;;;;;4919687;29;20426;-71
2023/09/07 16:35:24;;;;;;;8.23;6.13;;;;;;;;;;4919531;29;20529;-71
2023/09/07 16:37:50;;;;;;;10.37;5.60;;;;;;;;;;4919149;29;20449;-71
2023/09/07 16:40:16;;;;;;;9.37;6.37;;;;;;;;;;4917143;29;20429;-71
2023/09/07 16:42:42;;;;;;;7.53;5.10;;;;;;;;;;4918510;29;20884;-70
2023/09/07 16:45:08;;;;;;;6.70;5.80;;;;;;;;;;4918396;29;20438;-70
2023/09/07 16:47:34;;;;;;;9.63;5.83;;;;;;;;;;4917969;29;20449;-70
2023/09/07 16:50:00;;;;;;;11.00;6.00;;;;;;;;;;4917856;29;20470;-71
2023/09/07 16:52:27;;;;;;;7.40;6.10;;;;;;;;;;4918170;29;20410;-71
2023/09/07 16:54:53;;;;;;;12.77;6.37;;;;;;;;;;4918340;29;20563;-71
2023/09/07 16:57:19;;;;;;;11.13;5.80;;;;;;;;;;4918884;29;20466;-71
2023/09/07 16:59:48;;;;;;;10.03;5.70;;;;;;;;;;4919340;29;20909;-71
2023/09/07 17:02:14;;;;;;;10.73;6.30;;;;;;;;;;4916788;29;20426;-70
2023/09/07 17:04:40;;;;;;;7.27;5.30;;;;;;;;;;4918543;29;20418;-71
2023/09/07 17:07:06;;;;;;;9.80;5.23;;;;;;;;;;4918072;29;20814;-71
2023/09/07 17:09:33;;;;;;;6.90;5.10;;;;;;;;;;4918232;29;20434;-71
2023/09/07 17:11:59;;;;;;;8.90;5.97;;;;;;;;;;4918233;29;20522;-70
2023/09/07 17:14:26;;;;;;;11.10;5.90;;;;;;;;;;4918860;29;20426;-71
2023/09/07 17:16:52;;;;;;;7.43;5.50;;;;;;;;;;4918008;29;20561;-69
2023/09/07 17:19:21;;;;;;;10.77;6.33;;;;;;;;;;4916924;29;20517;-70
2023/09/07 17:21:47;;;;;;;9.50;5.40;;;;;;;;;;4916370;29;20422;-70
2023/09/07 17:24:13;;;;;;;6.37;4.63;;;;;;;;;;4918063;29;20422;-70
2023/09/07 17:26:39;;;;;;;7.93;5.30;;;;;;;;;;4914908;29;20474;-70
2023/09/07 17:29:05;;;;;;;10.07;5.83;;;;;;;;;;4890127;29;20469;-71
2023/09/07 17:31:31;;;;;;;8.70;5.87;;;;;;;;;;4895463;29;20466;-70
2023/09/07 17:33:57;;;;;;;9.87;5.53;;;;;;;;;;4894333;29;20444;-70
2023/09/07 17:36:24;;;;;;;13.17;6.03;;;;;;;;;;4899106;29;20895;-70
2023/09/07 17:38:56;;;;;;;9.03;6.07;;;;;;;;;;4899141;29;20478;-71
2023/09/07 17:41:26;;;;;;;9.40;6.13;;;;;;;;;;4899256;29;20438;-70
2023/09/07 17:43:53;;;;;;;11.17;6.40;;;;;;;;;;4899750;29;20466;-70
2023/09/07 17:46:19;;;;;;;11.37;6.33;;;;;;;;;;4899028;29;20457;-71
2023/09/07 17:48:45;;;;;;;12.03;5.77;;;;;;;;;;4896130;29;20429;-71
2023/09/07 17:51:12;;;;;;;12.03;6.53;;;;;;;;;;4899381;29;20956;-71
2023/09/07 17:53:38;;;;;;;11.20;5.10;;;;;;;;;;4900416;29;20415;-71
2023/09/07 17:56:07;;;;;;;8.80;6.03;;;;;;;;;;4899903;29;20514;-70
2023/09/07 17:58:37;;;;;;;12.70;6.40;;;;;;;;;;4899122;29;20498;-69
2023/09/07 18:01:04;;;;;;;8.10;5.20;;;;;;;;;;4898303;29;20454;-70
2023/09/07 18:03:30;;;;;;;15.83;6.43;;;;;;;;;;4897951;29;20424;-70
2023/09/07 18:05:56;;;;;;;15.87;9.60;;;;;;;;;;4903727;29;20530;-74
2023/09/07 18:08:23;;;;;;;7.67;6.10;;;;;;;;;;4915171;29;20430;-70
2023/09/07 18:10:49;;;;;;;14.13;7.33;;;;;;;;;;4917158;29;20433;-70
2023/09/07 18:13:15;;;;;;;12.93;7.97;;;;;;;;;;4917141;29;20802;-71
2023/09/07 18:15:41;;;;;;;12.20;7.40;;;;;;;;;;4938495;23;20492;-72
2023/09/07 18:18:07;;;;;;;15.53;9.50;;;;;;;;;;4923157;29;20787;-73
2023/09/07 18:20:33;;;;;;;21.13;11.53;;;;;;;;;;4926698;29;20423;-74
2023/09/07 18:23:00;;;;;;;14.33;8.40;;;;;;;;;;4917061;29;20419;-74
2023/09/07 18:25:27;;;;;;;22.47;10.00;;;;;;;;;;4927758;29;20534;-74
2023/09/07 18:27:53;;;;;;;16.50;10.37;;;;;;;;;;4915633;29;20924;-74
2023/09/07 18:30:19;;;;;;;14.27;9.20;;;;;;;;;;4934313;29;20422;-74
2023/09/07 18:32:45;;;;;;;19.60;10.40;;;;;;;;;;4936260;29;20422;-73
2023/09/07 18:35:11;;;;;;;16.40;10.10;;;;;;;;;;4936250;29;20447;-74
2023/09/07 18:37:38;;;;;;;12.67;7.90;;;;;;;;;;4935511;29;20512;-73
2023/09/07 18:40:04;;;;;;;13.97;8.20;;;;;;;;;;4935251;29;20436;-73
2023/09/07 18:42:30;;;;;;;12.17;7.80;;;;;;;;;;4935616;29;20434;-72
2023/09/07 18:44:56;;;;;;;17.07;7.60;;;;;;;;;;4935328;29;20823;-73
2023/09/07 18:47:22;;;;;;;14.60;7.87;;;;;;;;;;4935352;29;20422;-73
2023/09/07 18:49:49;;;;;;;13.03;8.40;;;;;;;;;;4934823;29;20989;-72
2023/09/07 18:52:15;;;;;;;12.03;7.27;;;;;;;;;;4935365;29;20441;-73
2023/09/07 18:54:41;;;;;;;11.80;7.13;;;;;;;;;;4935822;29;20448;-73
2023/09/07 18:57:07;;;;;;;9.97;6.50;;;;;;;;;;4935169;29;20516;-71
2023/09/07 18:59:33;;;;;;;10.17;6.67;;;;;;;;;;4934798;29;20942;-72
2023/09/07 19:02:02;;;;;;;11.20;6.60;;;;;;;;;;4935444;29;20413;-71
2023/09/07 19:04:31;;;;;;;12.30;6.33;;;;;;;;;;4935210;29;20916;-72
2023/09/07 19:06:57;;;;;;;14.50;7.20;;;;;;;;;;4936114;29;20446;-74
2023/09/07 19:09:23;;;;;;;10.80;6.80;;;;;;;;;;4927486;29;20597;-72
2023/09/07 19:11:49;;;;;;;9.60;6.73;;;;;;;;;;4917169;29;20434;-72
2023/09/07 19:14:15;;;;;;;10.57;7.00;;;;;;;;;;4917581;29;20811;-72
2023/09/07 19:16:41;;;;;;;10.77;7.13;;;;;;;;;;4916104;29;20553;-72
2023/09/07 19:19:07;;;;;;;12.53;7.23;;;;;;;;;;4913614;29;20434;-72
2023/09/07 19:21:33;;;;;;;12.37;7.10;;;;;;;;;;4917215;29;20435;-75
2023/09/07 19:23:59;;;;;;;9.60;6.97;;;;;;;;;;4916712;29;20430;-72
2023/09/07 19:26:35;;;;;;;13.53;7.63;;;;;;;;;;4915659;29;20912;-74
2023/09/07 19:29:05;;;;;;;10.27;7.17;;;;;;;;;;4918455;29;20435;-74
2023/09/07 19:31:32;;;;;;;10.10;6.93;;;;;;;;;;4897721;29;20447;-74
2023/09/07 19:33:58;;;;;;;14.90;7.13;;;;;;;;;;4897402;29;20831;-74
2023/09/07 19:36:25;;;;;;;11.60;7.20;;;;;;;;;;4897344;29;20467;-74
2023/09/07 19:38:53;;;;;;;11.27;6.60;;;;;;;;;;4904908;29;20427;-74
2023/09/07 19:41:19;;;;;;;14.57;8.37;;;;;;;;;;4910848;29;20925;-74
2023/09/07 19:43:45;;;;;;;12.97;7.50;;;;;;;;;;4914622;29;20419;-74
2023/09/07 19:46:11;;;;;;;18.00;7.83;;;;;;;;;;4915664;29;20871;-74
2023/09/07 19:48:37;;;;;;;13.40;7.30;;;;;;;;;;4915119;29;20947;-73
2023/09/07 19:51:09;;;;;;;17.20;8.90;;;;;;;;;;4909060;29;20430;-74
2023/09/07 19:53:35;;;;;;;14.60;7.10;;;;;;;;;;4915891;29;20553;-74
2023/09/07 19:56:11;;;;;;;11.20;7.53;;;;;;;;;;4915580;29;20553;-72
2023/09/07 19:58:38;;;;;;;14.70;7.97;;;;;;;;;;4915175;29;20426;-74
2023/09/07 20:01:04;;;;;;;11.60;7.27;;;;;;;;;;4915505;29;20422;-72
2023/09/07 20:03:31;;;;;;;12.80;8.33;;;;;;;;;;4916053;29;20733;-72
2023/09/07 20:05:57;;;;;;;12.40;8.00;;;;;;;;;;4915457;29;20446;-72
2023/09/07 20:08:23;;;;;;;15.27;8.40;;;;;;;;;;4915302;29;20474;-74
2023/09/07 20:10:48;;;;;;;12.63;7.53;;;;;;;;;;4915806;29;20477;-72
2023/09/07 20:13:15;;;;;;;11.80;7.20;;;;;;;;;;4915554;29;20422;-71
2023/09/07 20:15:41;;;;;;;10.10;7.50;;;;;;;;;;4915196;29;20470;-74
2023/09/07 20:18:09;;;;;;;12.47;8.10;;;;;;;;;;4915300;29;20485;-72
2023/09/07 20:20:36;;;;;;;13.43;8.40;;;;;;;;;;4915558;29;20426;-72
2023/09/07 20:23:02;;;;;;;14.67;8.53;;;;;;;;;;4915477;29;20422;-72
2023/09/07 20:25:28;;;;;;;10.67;7.53;;;;;;;;;;4913290;29;20426;-71
2023/09/07 20:27:54;;;;;;;14.30;8.80;;;;;;;;;;4912972;29;20542;-73
2023/09/07 20:30:20;;;;;;;14.90;8.40;;;;;;;;;;4933512;29;20457;-76